createdAt,value
2019-05-29T00:00:58.522Z,1.90
2019-05-29T00:03:27.062Z,1.60
2019-05-29T00:05:55.519Z,2.20
2019-05-29T00:08:24.031Z,2.22
2019-05-29T00:10:52.547Z,2.05
2019-05-29T00:13:20.989Z,2.00
2019-05-29T00:15:49.434Z,2.30
2019-05-29T00:18:18.641Z,2.25
2019-05-29T00:20:47.261Z,2.42
2019-05-29T00:23:15.849Z,2.17
2019-05-29T00:25:44.382Z,2.30
2019-05-29T00:28:12.898Z,2.20
2019-05-29T00:30:41.392Z,2.37
2019-05-29T00:33:10.085Z,2.20
2019-05-29T00:35:38.706Z,2.55
2019-05-29T00:38:08.422Z,1.87
2019-05-29T00:40:37.211Z,1.90
2019-05-29T00:43:05.666Z,1.70
2019-05-29T00:45:34.119Z,1.90
2019-05-29T00:48:02.615Z,1.87
2019-05-29T00:50:31.075Z,1.80
2019-05-29T00:52:59.543Z,1.60
2019-05-29T00:55:28.130Z,1.62
2019-05-29T00:57:56.641Z,1.30
2019-05-29T01:00:25.097Z,1.50
2019-05-29T01:02:53.641Z,1.72
2019-05-29T01:05:22.169Z,1.70
2019-05-29T01:07:50.677Z,1.57
2019-05-29T01:10:20.754Z,2.00
2019-05-29T01:12:49.383Z,2.00
2019-05-29T01:15:19.454Z,1.52
2019-05-29T01:17:48.103Z,1.72
2019-05-29T01:20:18.078Z,1.40
2019-05-29T01:22:46.624Z,1.60
2019-05-29T01:25:16.479Z,1.65
2019-05-29T01:27:45.095Z,1.90
2019-05-29T01:30:15.033Z,1.67
2019-05-29T01:32:43.681Z,2.00
2019-05-29T01:35:13.670Z,1.60
2019-05-29T01:37:42.268Z,1.80
2019-05-29T01:40:20.138Z,1.55
2019-05-29T01:42:41.058Z,1.37
2019-05-29T01:45:09.906Z,1.70
2019-05-29T01:47:38.361Z,2.08
2019-05-29T01:50:07.750Z,2.20
2019-05-29T01:52:36.250Z,1.80
2019-05-29T01:55:06.548Z,1.82
2019-05-29T01:57:35.067Z,2.30
2019-05-29T02:00:07.330Z,1.90
2019-05-29T02:02:35.882Z,1.67
2019-05-29T02:05:06.127Z,1.60
2019-05-29T02:07:34.573Z,1.90
2019-05-29T02:10:03.702Z,1.80
2019-05-29T02:12:32.440Z,1.32
2019-05-29T02:15:00.894Z,1.60
2019-05-29T02:17:29.339Z,1.70
2019-05-29T02:19:57.839Z,2.00
2019-05-29T02:22:27.115Z,1.50
2019-05-29T02:24:55.722Z,1.90
2019-05-29T02:27:25.492Z,2.00
2019-05-29T02:29:54.062Z,1.75
2019-05-29T02:32:23.582Z,1.60
2019-05-29T02:34:52.280Z,1.40
2019-05-29T02:37:22.185Z,1.80
2019-05-29T02:39:50.801Z,1.72
2019-05-29T02:42:20.878Z,1.52
2019-05-29T02:44:49.556Z,2.00
2019-05-29T02:47:21.564Z,1.90
2019-05-29T02:49:49.971Z,1.90
2019-05-29T02:52:19.985Z,1.57
2019-05-29T02:54:48.649Z,2.12
2019-05-29T02:57:17.232Z,1.77
2019-05-29T02:59:45.764Z,1.77
2019-05-29T03:02:14.288Z,1.60
2019-05-29T03:04:42.853Z,2.05
2019-05-29T03:07:11.364Z,1.60
2019-05-29T03:09:43.132Z,2.10
2019-05-29T03:12:11.581Z,2.33
2019-05-29T03:14:40.271Z,2.25
2019-05-29T03:17:08.764Z,2.00
2019-05-29T03:19:37.288Z,1.80
2019-05-29T03:22:05.884Z,2.00
2019-05-29T03:24:35.186Z,1.67
2019-05-29T03:27:03.748Z,1.72
2019-05-29T03:29:34.109Z,1.75
2019-05-29T03:32:02.440Z,1.85
2019-05-29T03:34:37.213Z,2.15
2019-05-29T03:37:01.202Z,2.02
2019-05-29T03:39:30.326Z,1.98
2019-05-29T03:41:58.906Z,1.85
2019-05-29T03:44:28.695Z,2.05
2019-05-29T03:46:57.746Z,1.87
2019-05-29T03:49:26.865Z,1.77
2019-05-29T03:51:55.545Z,1.82
2019-05-29T03:54:24.003Z,1.47
2019-05-29T03:56:52.711Z,1.72
2019-05-29T03:59:21.156Z,1.72
2019-05-29T04:01:49.724Z,1.62
2019-05-29T04:04:18.182Z,1.75
2019-05-29T04:06:47.482Z,2.58
2019-05-29T04:09:16.201Z,2.00
2019-05-29T04:11:44.647Z,1.75
2019-05-29T04:14:13.404Z,1.70
2019-05-29T04:16:59.031Z,1.95
2019-05-29T04:19:13.793Z,2.05
2019-05-29T04:21:43.452Z,1.87
2019-05-29T04:24:13.602Z,1.95
2019-05-29T04:26:42.517Z,2.10
2019-05-29T04:29:11.243Z,1.95
2019-05-29T04:31:39.726Z,2.00
2019-05-29T04:34:08.309Z,2.22
2019-05-29T04:36:37.377Z,1.82
2019-05-29T04:39:07.405Z,1.85
2019-05-29T04:41:37.146Z,1.90
2019-05-29T04:44:06.096Z,2.05
2019-05-29T04:46:36.211Z,1.92
2019-05-29T04:49:04.756Z,2.20
2019-05-29T04:51:33.302Z,1.90
2019-05-29T04:54:01.822Z,2.08
2019-05-29T04:56:30.753Z,1.95
2019-05-29T04:58:59.350Z,1.80
2019-05-29T05:01:28.884Z,1.67
2019-05-29T05:03:57.635Z,1.95
2019-05-29T05:06:26.124Z,2.40
2019-05-29T05:08:54.655Z,2.22
2019-05-29T05:11:23.147Z,2.20
2019-05-29T05:13:51.603Z,1.72
2019-05-29T05:16:20.118Z,1.98
2019-05-29T05:18:48.570Z,1.82
2019-05-29T05:21:17.015Z,2.15
2019-05-29T05:23:45.495Z,1.67
2019-05-29T05:26:14.250Z,1.70
2019-05-29T05:28:45.213Z,2.35
2019-05-29T05:31:12.901Z,1.50
2019-05-29T05:33:41.461Z,2.08
2019-05-29T05:36:09.952Z,1.60
2019-05-29T05:38:38.803Z,1.70
2019-05-29T05:41:07.371Z,1.80
2019-05-29T05:43:36.905Z,1.57
2019-05-29T05:46:05.523Z,1.60
2019-05-29T05:48:35.042Z,1.40
2019-05-29T05:51:03.702Z,1.42
2019-05-29T05:53:33.368Z,1.77
2019-05-29T05:56:02.013Z,1.40
2019-05-29T05:58:31.659Z,1.50
2019-05-29T06:01:00.404Z,1.45
2019-05-29T06:03:28.926Z,1.20
2019-05-29T06:05:57.424Z,1.50
2019-05-29T06:08:26.023Z,1.42
2019-05-29T06:10:54.472Z,1.50
2019-05-29T06:13:22.921Z,1.55
2019-05-29T06:15:51.434Z,1.42
2019-05-29T06:18:21.797Z,1.22
2019-05-29T06:20:50.052Z,1.50
2019-05-29T06:23:18.541Z,1.45
2019-05-29T06:25:48.903Z,1.15
2019-05-29T06:30:45.223Z,1.00
2019-05-29T06:33:13.746Z,1.22
2019-05-29T06:35:42.209Z,1.37
2019-05-29T06:38:10.711Z,1.57
2019-05-29T06:40:42.199Z,1.10
2019-05-29T06:43:22.267Z,1.70
2019-05-29T06:45:51.327Z,1.30
2019-05-29T06:48:41.942Z,1.67
2019-05-29T06:50:57.466Z,1.20
2019-05-29T06:53:26.062Z,1.10
2019-05-29T06:55:56.431Z,1.67
2019-05-29T06:58:25.040Z,1.42
2019-05-29T07:00:53.513Z,1.80
2019-05-29T07:03:22.029Z,1.27
2019-05-29T07:05:52.554Z,1.30
2019-05-29T07:08:35.209Z,1.47
2019-05-29T07:10:50.928Z,1.25
2019-05-29T07:13:19.484Z,1.10
2019-05-29T07:15:47.996Z,1.50
2019-05-29T07:18:16.527Z,1.37
2019-05-29T07:20:44.985Z,1.42
2019-05-29T07:23:13.552Z,1.60
2019-05-29T07:25:42.967Z,1.32
2019-05-29T07:28:11.817Z,1.33
2019-05-29T07:30:44.051Z,1.30
2019-05-29T07:33:10.459Z,1.80
2019-05-29T07:35:39.294Z,1.35
2019-05-29T07:38:08.448Z,1.52
2019-05-29T07:40:38.409Z,1.20
2019-05-29T07:45:34.915Z,1.10
2019-05-29T07:48:03.746Z,1.20
2019-05-29T07:50:32.199Z,1.15
2019-05-29T07:53:00.698Z,1.50
2019-05-29T07:55:29.237Z,1.05
2019-05-29T07:57:57.810Z,1.32
2019-05-29T08:00:35.338Z,1.30
2019-05-29T08:02:56.442Z,1.22
2019-05-29T08:05:24.931Z,1.37
2019-05-29T08:07:53.408Z,1.10
2019-05-29T08:10:22.526Z,1.55
2019-05-29T08:12:55.287Z,0.93
2019-05-29T08:15:21.161Z,1.10
2019-05-29T08:17:50.250Z,1.30
2019-05-29T08:20:18.992Z,0.80
2019-05-29T08:22:48.541Z,1.10
2019-05-29T08:25:18.119Z,1.20
2019-05-29T08:27:46.687Z,0.82
2019-05-29T08:30:15.808Z,1.42
2019-05-29T08:32:45.361Z,1.25
2019-05-29T08:35:14.563Z,1.07
2019-05-29T08:37:43.021Z,1.35
2019-05-29T08:40:11.908Z,0.80
2019-05-29T08:42:41.093Z,1.35
2019-05-29T08:45:10.255Z,1.00
2019-05-29T08:47:38.774Z,1.00
2019-05-29T08:50:18.067Z,0.98
2019-05-29T08:52:37.975Z,1.20
2019-05-29T08:55:07.916Z,0.95
2019-05-29T08:57:36.363Z,0.95
2019-05-29T09:00:13.487Z,1.22
2019-05-29T09:02:42.648Z,1.37
2019-05-29T09:05:12.280Z,1.25
2019-05-29T09:07:40.806Z,1.50
2019-05-29T09:10:09.874Z,0.82
2019-05-29T09:12:38.413Z,1.15
2019-05-29T09:15:10.750Z,0.98
2019-05-29T09:17:39.377Z,1.07
2019-05-29T09:20:25.413Z,0.95
2019-05-29T09:22:38.570Z,1.15
2019-05-29T09:25:07.764Z,0.90
2019-05-29T09:27:36.251Z,1.50
2019-05-29T09:30:06.939Z,1.20
2019-05-29T09:32:49.473Z,1.20
2019-05-29T09:35:07.382Z,1.12
2019-05-29T09:37:35.841Z,0.90
2019-05-29T09:40:07.362Z,1.00
2019-05-29T09:42:35.860Z,0.90
2019-05-29T09:45:06.313Z,0.90
2019-05-29T09:47:34.767Z,0.80
2019-05-29T09:50:23.995Z,0.98
2019-05-29T09:52:55.324Z,1.37
2019-05-29T09:55:23.506Z,1.20
2019-05-29T09:57:53.519Z,1.10
2019-05-29T10:02:50.394Z,1.00
2019-05-29T10:05:19.092Z,1.07
2019-05-29T10:07:47.729Z,1.25
2019-05-29T10:10:17.071Z,0.90
2019-05-29T10:12:45.558Z,1.00
2019-05-29T10:15:14.890Z,1.25
2019-05-29T10:17:43.565Z,0.87
2019-05-29T10:20:12.884Z,0.90
2019-05-29T10:22:41.471Z,0.90
2019-05-29T10:25:12.464Z,1.00
2019-05-29T10:27:40.914Z,1.20
2019-05-29T10:30:10.299Z,0.82
2019-05-29T10:32:38.837Z,0.97
2019-05-29T10:35:07.490Z,0.70
2019-05-29T10:37:36.029Z,0.90
2019-05-29T10:40:09.782Z,1.05
2019-05-29T10:42:38.466Z,0.90
2019-05-29T10:45:11.890Z,1.05
2019-05-29T10:47:40.331Z,1.07
2019-05-29T10:50:10.166Z,1.00
2019-05-29T10:52:39.007Z,1.15
2019-05-29T10:55:09.392Z,1.92
2019-05-29T11:00:07.482Z,0.85
2019-05-29T11:02:35.957Z,1.32
2019-05-29T11:05:07.227Z,1.20
2019-05-29T11:07:35.760Z,0.80
2019-05-29T11:10:05.944Z,1.02
2019-05-29T11:12:34.443Z,1.17
2019-05-29T11:15:20.313Z,1.27
2019-05-29T11:17:34.195Z,0.95
2019-05-29T11:20:04.191Z,0.88
2019-05-29T11:22:32.647Z,1.02
2019-05-29T11:25:21.082Z,1.02
2019-05-29T11:27:31.398Z,1.00
2019-05-29T11:30:00.002Z,0.90
2019-05-29T11:32:28.556Z,1.00
2019-05-29T11:34:57.537Z,0.93
2019-05-29T11:37:26.216Z,1.50
2019-05-29T11:39:54.862Z,1.10
2019-05-29T11:42:27.582Z,1.50
2019-05-29T11:44:55.141Z,1.05
2019-05-29T11:47:23.794Z,1.27
2019-05-29T11:49:53.141Z,1.10
2019-05-29T11:52:25.018Z,1.20
2019-05-29T11:57:21.425Z,0.82
2019-05-29T11:59:49.911Z,1.10
2019-05-29T12:02:18.418Z,1.17
2019-05-29T12:04:46.866Z,1.20
2019-05-29T12:07:15.316Z,1.12
2019-05-29T12:09:43.812Z,1.00
2019-05-29T12:12:12.325Z,0.90
2019-05-29T12:14:58.935Z,1.32
2019-05-29T12:17:10.998Z,0.88
2019-05-29T12:19:39.548Z,0.82
2019-05-29T12:22:08.071Z,1.05
2019-05-29T12:24:36.598Z,1.20
2019-05-29T12:27:05.278Z,1.20
2019-05-29T12:29:33.783Z,1.10
2019-05-29T12:32:07.044Z,1.22
2019-05-29T12:34:32.496Z,1.15
2019-05-29T12:37:01.906Z,0.80
2019-05-29T12:39:30.547Z,0.70
2019-05-29T12:41:59.847Z,1.30
2019-05-29T12:44:28.455Z,1.07
2019-05-29T12:46:57.719Z,0.88
2019-05-29T12:49:26.323Z,0.90
2019-05-29T12:51:55.393Z,1.10
2019-05-29T12:54:24.057Z,0.93
2019-05-29T12:56:53.949Z,0.93
2019-05-29T12:59:22.673Z,1.10
2019-05-29T13:01:51.124Z,0.88
2019-05-29T13:04:19.612Z,1.00
2019-05-29T13:06:48.062Z,0.75
2019-05-29T13:09:16.583Z,0.90
2019-05-29T13:11:45.047Z,1.12
2019-05-29T13:14:13.581Z,0.82
2019-05-29T13:16:42.150Z,1.00
2019-05-29T13:19:10.714Z,0.93
2019-05-29T13:21:39.238Z,1.00
2019-05-29T13:24:11.369Z,0.93
2019-05-29T13:29:06.138Z,1.00
2019-05-29T13:31:34.858Z,1.32
2019-05-29T13:34:04.387Z,0.80
2019-05-29T13:36:33.156Z,1.05
2019-05-29T13:39:02.403Z,1.05
2019-05-29T13:41:31.020Z,1.00
2019-05-29T13:44:00.508Z,1.40
2019-05-29T13:46:29.481Z,1.10
2019-05-29T13:48:58.878Z,1.10
2019-05-29T13:51:28.201Z,0.90
2019-05-29T13:54:03.659Z,0.80
2019-05-29T13:56:26.942Z,0.90
2019-05-29T13:58:55.533Z,0.65
2019-05-29T14:01:24.005Z,0.90
2019-05-29T14:03:52.519Z,1.02
2019-05-29T14:06:21.012Z,1.10
2019-05-29T14:08:49.632Z,1.15
2019-05-29T14:11:18.078Z,0.95
2019-05-29T14:13:46.550Z,0.90
2019-05-29T14:16:15.115Z,0.93
2019-05-29T14:18:43.668Z,1.12
2019-05-29T14:21:13.540Z,1.12
2019-05-29T14:23:42.223Z,0.80
2019-05-29T14:26:10.720Z,1.20
2019-05-29T14:28:39.247Z,1.12
2019-05-29T14:31:08.403Z,1.12
2019-05-29T14:33:37.030Z,0.95
2019-05-29T14:36:06.103Z,1.42
2019-05-29T14:38:35.859Z,1.00
2019-05-29T14:41:05.620Z,1.00
2019-05-29T14:43:34.268Z,0.95
2019-05-29T14:46:03.838Z,0.70
2019-05-29T14:48:32.551Z,0.68
2019-05-29T14:51:03.187Z,0.98
2019-05-29T14:55:59.002Z,0.93
2019-05-29T14:58:27.585Z,1.10
2019-05-29T15:00:56.111Z,1.12
2019-05-29T15:03:24.566Z,1.00
2019-05-29T15:05:53.056Z,1.00
2019-05-29T15:08:21.511Z,1.00
2019-05-29T15:10:50.032Z,1.05
2019-05-29T15:13:18.555Z,1.00
2019-05-29T15:15:47.019Z,0.98
2019-05-29T15:18:18.787Z,1.12
2019-05-29T15:23:13.547Z,0.90
2019-05-29T15:25:42.327Z,1.20
2019-05-29T15:28:13.670Z,1.00
2019-05-29T15:33:08.689Z,1.10
2019-05-29T15:35:37.250Z,0.90
2019-05-29T15:38:06.674Z,0.80
2019-05-29T15:40:35.210Z,0.95
2019-05-29T15:43:03.881Z,0.90
2019-05-29T15:45:32.405Z,1.02
2019-05-29T15:48:00.963Z,1.00
2019-05-29T15:50:29.518Z,1.20
2019-05-29T15:52:58.118Z,0.90
2019-05-29T15:55:34.009Z,1.57
2019-05-29T16:00:24.895Z,1.27
2019-05-29T16:02:53.393Z,1.10
2019-05-29T16:05:22.786Z,1.22
2019-05-29T16:07:51.300Z,1.02
2019-05-29T16:10:20.948Z,1.00
2019-05-29T16:12:49.740Z,0.90
2019-05-29T16:15:19.453Z,1.20
2019-05-29T16:17:48.154Z,0.93
2019-05-29T16:20:18.602Z,1.10
2019-05-29T16:22:47.720Z,1.05
2019-05-29T16:25:17.006Z,0.95
2019-05-29T16:27:45.560Z,1.47
2019-05-29T16:30:15.560Z,1.20
2019-05-29T16:35:13.070Z,1.17
2019-05-29T16:37:41.741Z,1.10
2019-05-29T16:40:11.905Z,1.30
2019-05-29T16:42:40.532Z,1.00
2019-05-29T16:45:10.076Z,0.88
2019-05-29T16:47:38.895Z,1.05
2019-05-29T16:50:08.193Z,1.42
2019-05-29T16:52:37.085Z,1.07
2019-05-29T16:55:06.883Z,1.42
2019-05-29T16:57:35.555Z,1.47
2019-05-29T17:00:07.101Z,1.65
2019-05-29T17:02:35.679Z,1.22
2019-05-29T17:05:06.193Z,2.10
2019-05-29T17:07:34.724Z,1.10
2019-05-29T17:10:04.753Z,1.10
2019-05-29T17:12:33.271Z,2.22
2019-05-29T17:15:01.928Z,1.90
2019-05-29T17:17:30.737Z,16.30
2019-05-29T17:19:59.436Z,4.92
2019-05-29T17:22:27.897Z,6.90
2019-05-29T17:24:56.346Z,1.92
2019-05-29T17:27:25.091Z,3.45
2019-05-29T17:29:53.830Z,2.45
2019-05-29T17:32:23.198Z,3.42
2019-05-29T17:34:51.917Z,2.50
2019-05-29T17:37:21.061Z,2.83
2019-05-29T17:39:49.759Z,2.37
2019-05-29T17:42:18.275Z,2.95
2019-05-29T17:44:47.002Z,2.05
2019-05-29T17:47:15.731Z,8.80
2019-05-29T17:49:44.333Z,1.22
2019-05-29T17:52:12.830Z,1.22
2019-05-29T17:54:41.406Z,1.27
2019-05-29T17:57:10.162Z,1.20
2019-05-29T17:59:38.618Z,1.30
2019-05-29T18:02:07.085Z,1.02
2019-05-29T18:04:35.681Z,1.35
2019-05-29T18:07:04.209Z,1.05
2019-05-29T18:09:32.816Z,1.40
2019-05-29T18:12:01.315Z,0.95
2019-05-29T18:14:29.768Z,1.10
2019-05-29T18:16:58.275Z,1.30
2019-05-29T18:19:27.984Z,1.60
2019-05-29T18:21:56.947Z,1.55
2019-05-29T18:24:26.087Z,1.15
2019-05-29T18:26:54.742Z,1.20
2019-05-29T18:29:24.398Z,0.98
2019-05-29T18:31:53.221Z,1.07
2019-05-29T18:34:22.788Z,1.42
2019-05-29T18:36:51.398Z,1.40
2019-05-29T18:39:20.174Z,1.17
2019-05-29T18:41:48.965Z,1.60
2019-05-29T18:44:17.490Z,2.17
2019-05-29T18:46:46.011Z,1.30
2019-05-29T18:49:14.999Z,1.72
2019-05-29T18:51:43.590Z,1.75
2019-05-29T18:54:12.161Z,1.80
2019-05-29T18:56:40.793Z,1.72
2019-05-29T18:59:09.458Z,1.50
2019-05-29T19:01:37.923Z,1.85
2019-05-29T19:07:35.561Z,1.90
2019-05-29T19:10:07.447Z,1.37
2019-05-29T19:12:36.316Z,1.80
2019-05-29T19:15:08.675Z,1.50
2019-05-29T19:17:37.371Z,1.80
2019-05-29T19:20:07.687Z,1.80
2019-05-29T19:25:12.525Z,1.70
2019-05-29T19:27:42.299Z,1.82
2019-05-29T19:30:11.600Z,1.50
2019-05-29T19:36:09.771Z,1.77
2019-05-29T19:38:38.218Z,2.00
2019-05-29T19:41:06.668Z,1.90
2019-05-29T19:43:35.405Z,2.22
2019-05-29T19:46:04.097Z,2.52
2019-05-29T19:48:33.050Z,2.30
2019-05-29T19:51:01.863Z,2.98
2019-05-29T19:53:31.375Z,3.02
2019-05-29T19:56:00.164Z,3.17
2019-05-29T19:58:29.781Z,3.58
2019-05-29T20:00:58.343Z,3.47
2019-05-29T20:03:26.927Z,3.95
2019-05-29T20:05:56.324Z,3.45
2019-05-29T20:08:24.767Z,3.50
2019-05-29T20:10:53.246Z,3.20
2019-05-29T20:13:21.690Z,2.75
2019-05-29T20:15:50.180Z,2.10
2019-05-29T20:18:18.623Z,1.57
2019-05-29T20:20:47.134Z,2.20
2019-05-29T20:23:15.583Z,1.50
2019-05-29T20:25:44.035Z,2.55
2019-05-29T20:28:12.514Z,2.83
2019-05-29T20:30:40.976Z,2.20
2019-05-29T20:33:09.650Z,2.08
2019-05-29T20:35:39.155Z,1.95
2019-05-29T20:38:07.723Z,2.12
2019-05-29T20:40:37.207Z,2.10
2019-05-29T20:43:05.994Z,2.08
2019-05-29T20:45:35.517Z,2.05
2019-05-29T20:48:04.248Z,2.37
2019-05-29T20:50:32.857Z,2.40
2019-05-29T20:53:01.424Z,2.02
2019-05-29T20:55:29.870Z,2.42
2019-05-29T20:57:58.320Z,2.67
2019-05-29T21:00:26.812Z,2.60
2019-05-29T21:02:55.255Z,2.15
2019-05-29T21:05:23.746Z,2.40
2019-05-29T21:07:52.189Z,2.17
2019-05-29T21:10:20.982Z,2.52
2019-05-29T21:12:49.490Z,2.25
2019-05-29T21:15:18.006Z,3.10
2019-05-29T21:17:46.538Z,2.15
2019-05-29T21:20:15.330Z,2.72
2019-05-29T21:22:44.941Z,2.98
2019-05-29T21:25:18.920Z,2.95
2019-05-29T21:27:48.813Z,2.95
2019-05-29T21:30:17.079Z,3.80
2019-05-29T21:32:46.005Z,3.30
2019-05-29T21:35:14.765Z,3.90
2019-05-29T21:37:44.410Z,3.52
2019-05-29T21:40:13.529Z,3.58
2019-05-29T21:42:42.879Z,3.40
2019-05-29T21:45:11.662Z,4.30
2019-05-29T21:47:40.948Z,3.77
2019-05-29T21:50:10.437Z,3.20
2019-05-29T21:52:39.484Z,3.70
2019-05-29T21:55:08.713Z,4.25
2019-05-29T21:57:37.729Z,3.90
2019-05-29T22:00:12.863Z,4.22
2019-05-29T22:02:42.290Z,4.28
2019-05-29T22:05:11.600Z,3.95
2019-05-29T22:07:40.683Z,5.83
2019-05-29T22:10:09.534Z,5.37
2019-05-29T22:12:37.990Z,5.12
2019-05-29T22:15:07.365Z,5.92
2019-05-29T22:17:36.548Z,6.42
2019-05-29T22:20:06.875Z,7.30
2019-05-29T22:22:35.355Z,7.25
2019-05-29T22:25:06.378Z,8.00
2019-05-29T22:27:35.171Z,8.25
2019-05-29T22:30:04.986Z,7.87
2019-05-29T22:32:33.434Z,6.90
2019-05-29T22:35:02.025Z,6.92
2019-05-29T22:37:30.855Z,6.35
2019-05-29T22:39:59.635Z,6.28
2019-05-29T22:42:28.223Z,5.33
2019-05-29T22:44:57.747Z,5.12
2019-05-29T22:47:26.347Z,5.95
2019-05-29T22:49:55.765Z,6.00
2019-05-29T22:52:25.212Z,5.70
2019-05-29T22:54:53.860Z,5.53
2019-05-29T22:57:22.491Z,5.25
2019-05-29T22:59:51.825Z,5.03
2019-05-29T23:02:20.361Z,4.55
2019-05-29T23:04:48.865Z,4.08
2019-05-29T23:07:17.308Z,3.58
2019-05-29T23:09:45.749Z,3.33
2019-05-29T23:12:14.330Z,3.52
2019-05-29T23:14:42.939Z,3.17
2019-05-29T23:17:11.730Z,3.25
2019-05-29T23:19:40.177Z,2.98
2019-05-29T23:22:08.688Z,2.75
2019-05-29T23:24:37.133Z,2.85
2019-05-29T23:27:05.581Z,3.00
2019-05-29T23:29:48.028Z,2.83
2019-05-29T23:32:04.273Z,3.05
2019-05-29T23:34:32.799Z,2.90
2019-05-29T23:37:01.373Z,2.92
2019-05-29T23:39:29.874Z,2.47
2019-05-29T23:41:59.389Z,2.90
2019-05-29T23:44:27.886Z,2.55
2019-05-29T23:46:57.482Z,2.33
2019-05-29T23:49:26.280Z,2.50
2019-05-29T23:51:55.452Z,2.65
2019-05-29T23:54:24.050Z,2.92
2019-05-29T23:56:53.702Z,2.75
2019-05-29T23:59:22.382Z,2.70
